Terminal Aerodrome Forecast
Issued by NWS Wilmington, NC

Home | Current Version | Previous Version | Text Only | Print | Product List | Glossary On
Versions: 1 2 3 4 5 6 7 8 9 10 11 12 13 14 15 16 17 18 19 20 21 22 23 24 25 26 27 28 29
000
FTUS42 KILM 160500
TAFMYR
TAF
KMYR 160524Z 1606/1706 36003KT P6SM VCSH BKN015 OVC023
     FM160800 VRB02KT 6SM BR VCSH SCT008 OVC015
     FM161500 36006KT P6SM BKN020 BKN100
     FM161800 15008KT P6SM SCT030 BKN250
      AMD LTD TO CLD VIS AND WIND TIL 161100=

USA.gov is the U.S. government's official web portal to all federal, state and local government web resources and services.